Time;durP1;ratioP1;P1;durP2;ratioP2;P2;SDS_P1;SDS_P2;PMS_P1;PMS_P2;Temp;Humidity;BMP_temperature;BMP_pressure;BME280_temperature;BME280_humidity;BME280_pressure;Samples;Min_cycle;Max_cycle;Signal;HPM_P1;HPM_P2
2023/07/10 00:01:54;;;;;;;;;;;;;;;;;;5067583;28;20138;-78
2023/07/10 00:04:20;;;;;;;;;;;;;;;;;;5054487;28;19990;-78
2023/07/10 00:06:46;;;;;;;;;;;;;;;;;;5053373;28;19920;-79
2023/07/10 00:09:12;;;;;;;;;;;;;;;;;;5053680;28;20353;-79
2023/07/10 00:11:38;;;;;;;;;;;;;;;;;;5069579;28;20281;-79
2023/07/10 00:14:04;;;;;;;;;;;;;;;;;;5068404;28;20339;-79
2023/07/10 00:16:30;;;;;;;;;;;;;;;;;;5053454;28;19924;-79
2023/07/10 00:18:56;;;;;;;;;;;;;;;;;;5068957;28;19926;-79
2023/07/10 00:21:22;;;;;;;;;;;;;;;;;;5069295;28;19920;-79
2023/07/10 00:23:47;;;;;;;;;;;;;;;;;;5059429;28;19970;-79
2023/07/10 00:26:13;;;;;;;;;;;;;;;;;;5057782;28;19924;-79
2023/07/10 00:28:39;;;;;;;;;;;;;;;;;;5068946;28;20015;-78
2023/07/10 00:31:05;;;;;;;;;;;;;;;;;;5050256;28;19927;-79
2023/07/10 00:33:31;;;;;;;;;;;;;;;;;;5049643;28;19975;-79
2023/07/10 00:35:57;;;;;;;;;;;;;;;;;;5049876;28;19943;-79
2023/07/10 00:38:24;;;;;;;;;;;;;;;;;;5050096;28;19920;-79
2023/07/10 00:40:50;;;;;;;;;;;;;;;;;;5049310;28;20185;-79
2023/07/10 00:43:16;;;;;;;;;;;;;;;;;;5064468;28;19924;-79
2023/07/10 00:45:42;;;;;;;;;;;;;;;;;;5069622;28;20003;-79
2023/07/10 00:48:07;;;;;;;;;;;;;;;;;;5049175;28;19920;-79
2023/07/10 00:50:33;;;;;;;;;;;;;;;;;;5049820;28;19921;-79
2023/07/10 00:52:59;;;;;;;;;;;;;;;;;;5049725;28;20020;-79
2023/07/10 00:55:25;;;;;;;;;;;;;;;;;;5049682;28;20358;-79
2023/07/10 00:57:51;;;;;;;;;;;;;;;;;;5049232;28;20398;-80
2023/07/10 01:00:17;;;;;;;;;;;;;;;;;;5063938;28;19928;-79
2023/07/10 01:02:43;;;;;;;;;;;;;;;;;;5047639;28;19921;-79
2023/07/10 01:05:09;;;;;;;;;;;;;;;;;;5033295;28;19972;-79
2023/07/10 01:07:35;;;;;;;;;;;;;;;;;;5060210;28;19924;-80
2023/07/10 01:10:01;;;;;;;;;;;;;;;;;;5051402;28;19921;-80
2023/07/10 01:12:27;;;;;;;;;;;;;;;;;;5054231;28;19928;-80
2023/07/10 01:14:53;;;;;;;;;;;;;;;;;;5073096;28;19920;-80
2023/07/10 01:17:19;;;;;;;;;;;;;;;;;;5073987;28;20015;-80
2023/07/10 01:19:45;;;;;;;;;;;;;;;;;;5055496;28;19924;-79
2023/07/10 01:22:11;;;;;;;;;;;;;;;;;;5059500;28;19921;-79
2023/07/10 01:24:37;;;;;;;;;;;;;;;;;;5067938;28;19926;-80
2023/07/10 01:27:03;;;;;;;;;;;;;;;;;;5055856;28;19920;-79
2023/07/10 01:29:29;;;;;;;;;;;;;;;;;;5055829;28;20385;-79
2023/07/10 01:31:55;;;;;;;;;;;;;;;;;;5053204;28;19921;-79
2023/07/10 01:34:21;;;;;;;;;;;;;;;;;;5063851;28;19920;-79
2023/07/10 01:36:47;;;;;;;;;;;;;;;;;;5073012;28;19931;-79
2023/07/10 01:39:13;;;;;;;;;;;;;;;;;;5073376;28;19924;-79
2023/07/10 01:41:39;;;;;;;;;;;;;;;;;;5072762;28;19920;-80
2023/07/10 01:44:05;;;;;;;;;;;;;;;;;;5066096;28;19994;-79
2023/07/10 01:46:31;;;;;;;;;;;;;;;;;;5053306;28;20522;-80
2023/07/10 01:48:57;;;;;;;;;;;;;;;;;;5051729;28;20497;-79
2023/07/10 01:51:23;;;;;;;;;;;;;;;;;;5060125;28;20240;-80
2023/07/10 01:53:49;;;;;;;;;;;;;;;;;;5072557;28;19920;-80
2023/07/10 01:56:15;;;;;;;;;;;;;;;;;;5072787;28;20380;-79
2023/07/10 01:58:41;;;;;;;;;;;;;;;;;;5052886;28;20355;-79
2023/07/10 02:01:07;;;;;;;;;;;;;;;;;;5035948;28;19964;-80
2023/07/10 02:03:33;;;;;;;;;;;;;;;;;;5040007;28;19920;-80
2023/07/10 02:05:59;;;;;;;;;;;;;;;;;;5052516;28;19927;-80
2023/07/10 02:08:25;;;;;;;;;;;;;;;;;;5070444;28;20365;-80
2023/07/10 02:10:51;;;;;;;;;;;;;;;;;;5054914;28;19928;-80
2023/07/10 02:13:17;;;;;;;;;;;;;;;;;;5072653;28;19974;-80
2023/07/10 02:15:43;;;;;;;;;;;;;;;;;;5055547;28;19921;-80
2023/07/10 02:18:09;;;;;;;;;;;;;;;;;;5051185;28;19966;-80
2023/07/10 02:20:35;;;;;;;;;;;;;;;;;;5052760;28;19921;-79
2023/07/10 02:23:01;;;;;;;;;;;;;;;;;;5051781;28;19930;-80
2023/07/10 02:25:27;;;;;;;;;;;;;;;;;;5051280;28;19920;-80
2023/07/10 02:27:53;;;;;;;;;;;;;;;;;;5062101;28;19967;-79
2023/07/10 02:30:19;;;;;;;;;;;;;;;;;;5052296;28;19920;-80
2023/07/10 02:32:44;;;;;;;;;;;;;;;;;;5051771;28;19921;-80
2023/07/10 02:35:10;;;;;;;;;;;;;;;;;;5052052;28;19929;-79
2023/07/10 02:37:36;;;;;;;;;;;;;;;;;;5055714;28;19921;-80
2023/07/10 02:40:03;;;;;;;;;;;;;;;;;;5071362;28;19920;-80
2023/07/10 02:42:29;;;;;;;;;;;;;;;;;;5071755;28;19931;-80
2023/07/10 02:44:55;;;;;;;;;;;;;;;;;;5058590;28;19925;-80
2023/07/10 02:47:21;;;;;;;;;;;;;;;;;;5071751;28;20369;-79
2023/07/10 02:49:47;;;;;;;;;;;;;;;;;;5071197;28;19924;-80
2023/07/10 02:52:12;;;;;;;;;;;;;;;;;;5051548;28;19925;-80
2023/07/10 02:54:38;;;;;;;;;;;;;;;;;;5051953;28;19928;-80
2023/07/10 02:57:04;;;;;;;;;;;;;;;;;;5051119;28;19920;-80
2023/07/10 02:59:30;;;;;;;;;;;;;;;;;;5051735;28;20446;-80
2023/07/10 03:01:56;;;;;;;;;;;;;;;;;;5051479;28;20366;-80
2023/07/10 03:04:22;;;;;;;;;;;;;;;;;;5034484;28;20016;-79
2023/07/10 03:06:48;;;;;;;;;;;;;;;;;;5056542;28;20296;-79
2023/07/10 03:09:14;;;;;;;;;;;;;;;;;;5054527;28;20270;-79
2023/07/10 03:11:40;;;;;;;;;;;;;;;;;;5071481;28;19928;-80
2023/07/10 03:14:06;;;;;;;;;;;;;;;;;;5054664;28;19921;-79
2023/07/10 03:16:32;;;;;;;;;;;;;;;;;;5051761;28;19927;-80
2023/07/10 03:18:58;;;;;;;;;;;;;;;;;;5050356;28;19921;-79
2023/07/10 03:21:24;;;;;;;;;;;;;;;;;;5054855;28;19920;-79
2023/07/10 03:23:50;;;;;;;;;;;;;;;;;;5054575;28;20518;-79
2023/07/10 03:26:16;;;;;;;;;;;;;;;;;;5070859;28;19924;-80
2023/07/10 03:28:42;;;;;;;;;;;;;;;;;;5071173;28;20436;-80
2023/07/10 03:31:08;;;;;;;;;;;;;;;;;;5070834;28;20395;-80
2023/07/10 03:33:34;;;;;;;;;;;;;;;;;;5070586;28;20664;-79
2023/07/10 03:36:00;;;;;;;;;;;;;;;;;;5068256;28;20086;-79
2023/07/10 03:38:26;;;;;;;;;;;;;;;;;;5054482;28;19969;-79
2023/07/10 03:40:52;;;;;;;;;;;;;;;;;;5050716;28;19921;-78
2023/07/10 03:43:18;;;;;;;;;;;;;;;;;;5050761;28;19926;-80
2023/07/10 03:45:44;;;;;;;;;;;;;;;;;;5068482;28;20353;-80
2023/07/10 03:48:10;;;;;;;;;;;;;;;;;;5069682;28;20284;-79
2023/07/10 03:50:36;;;;;;;;;;;;;;;;;;5070616;28;19924;-80
2023/07/10 03:53:02;;;;;;;;;;;;;;;;;;5070383;28;19924;-79
2023/07/10 03:55:28;;;;;;;;;;;;;;;;;;5070507;28;20232;-80
2023/07/10 03:57:54;;;;;;;;;;;;;;;;;;5068337;28;20302;-79
2023/07/10 04:00:20;;;;;;;;;;;;;;;;;;5069511;28;19928;-79
2023/07/10 04:02:46;;;;;;;;;;;;;;;;;;5069954;28;19920;-79
2023/07/10 04:05:12;;;;;;;;;;;;;;;;;;5069777;28;19975;-79
2023/07/10 04:07:38;;;;;;;;;;;;;;;;;;5070672;28;19920;-80
2023/07/10 04:10:04;;;;;;;;;;;;;;;;;;5069465;28;20383;-79
2023/07/10 04:12:29;;;;;;;;;;;;;;;;;;5070775;28;20246;-79
2023/07/10 04:14:55;;;;;;;;;;;;;;;;;;5069939;28;19924;-78
2023/07/10 04:17:21;;;;;;;;;;;;;;;;;;5051062;28;19924;-80
2023/07/10 04:19:47;;;;;;;;;;;;;;;;;;5049834;28;19924;-79
2023/07/10 04:22:13;;;;;;;;;;;;;;;;;;5049717;28;20395;-79
2023/07/10 04:24:39;;;;;;;;;;;;;;;;;;5050365;28;20293;-79
2023/07/10 04:27:05;;;;;;;;;;;;;;;;;;5054990;28;20022;-79
2023/07/10 04:29:31;;;;;;;;;;;;;;;;;;5062674;28;19921;-79
2023/07/10 04:31:57;;;;;;;;;;;;;;;;;;5064757;28;19927;-78
2023/07/10 04:34:23;;;;;;;;;;;;;;;;;;5061158;28;19921;-79
2023/07/10 04:36:49;;;;;;;;;;;;;;;;;;5056219;28;19920;-80
2023/07/10 04:39:15;;;;;;;;;;;;;;;;;;5069729;28;19921;-79
2023/07/10 04:41:43;;;;;;;;;;;;;;;;;;5069866;28;20416;-79
2023/07/10 04:44:09;;;;;;;;;;;;;;;;;;5069451;28;19920;-79
2023/07/10 04:46:35;;;;;;;;;;;;;;;;;;5052566;28;19943;-79
2023/07/10 04:49:01;;;;;;;;;;;;;;;;;;5055044;28;19950;-79
2023/07/10 04:51:27;;;;;;;;;;;;;;;;;;5056767;28;20353;-79
2023/07/10 04:53:53;;;;;;;;;;;;;;;;;;5056804;28;20007;-79
2023/07/10 04:56:19;;;;;;;;;;;;;;;;;;5055839;28;20462;-79
2023/07/10 04:58:45;;;;;;;;;;;;;;;;;;5069689;28;19927;-79
2023/07/10 05:01:11;;;;;;;;;;;;;;;;;;5075370;28;19921;-79
2023/07/10 05:03:37;;;;;;;;;;;;;;;;;;5059109;28;19921;-79
2023/07/10 05:06:03;;;;;;;;;;;;;;;;;;5059368;28;19920;-78
2023/07/10 05:08:29;;;;;;;;;;;;;;;;;;5074984;28;19967;-79
2023/07/10 05:10:56;;;;;;;;;;;;;;;;;;5075375;28;19920;-80
2023/07/10 05:13:22;;;;;;;;;;;;;;;;;;5067782;28;19938;-79
2023/07/10 05:15:48;;;;;;;;;;;;;;;;;;5056332;28;20450;-79
2023/07/10 05:18:14;;;;;;;;;;;;;;;;;;5055343;28;19924;-79
2023/07/10 05:20:40;;;;;;;;;;;;;;;;;;5056358;28;19920;-79
2023/07/10 05:23:06;;;;;;;;;;;;;;;;;;5058759;28;19979;-79
2023/07/10 05:25:32;;;;;;;;;;;;;;;;;;5076179;28;19920;-79
2023/07/10 05:27:58;;;;;;;;;;;;;;;;;;5059085;28;19941;-79
2023/07/10 05:30:24;;;;;;;;;;;;;;;;;;5068211;28;19921;-79
2023/07/10 05:32:50;;;;;;;;;;;;;;;;;;5059095;28;19973;-80
2023/07/10 05:35:16;;;;;;;;;;;;;;;;;;5055981;28;20017;-80
2023/07/10 05:37:42;;;;;;;;;;;;;;;;;;5056232;28;19927;-80
2023/07/10 05:40:08;;;;;;;;;;;;;;;;;;5055407;28;19925;-80
2023/07/10 05:42:33;;;;;;;;;;;;;;;;;;5056444;28;19966;-80
2023/07/10 05:44:59;;;;;;;;;;;;;;;;;;5039583;28;19924;-80
2023/07/10 05:47:25;;;;;;;;;;;;;;;;;;5058397;28;19920;-81
2023/07/10 05:49:51;;;;;;;;;;;;;;;;;;5073026;28;19921;-81
2023/07/10 05:52:17;;;;;;;;;;;;;;;;;;5067425;28;19971;-81
2023/07/10 05:54:43;;;;;;;;;;;;;;;;;;5056421;28;19921;-81
2023/07/10 05:57:09;;;;;;;;;;;;;;;;;;5055419;28;19920;-81
2023/07/10 05:59:35;;;;;;;;;;;;;;;;;;5071335;28;20011;-82
2023/07/10 06:02:01;;;;;;;;;;;;;;;;;;5053253;28;19956;-82
2023/07/10 06:04:27;;;;;;;;;;;;;;;;;;5051613;28;19921;-81
2023/07/10 06:06:53;;;;;;;;;;;;;;;;;;5053110;28;19920;-82
2023/07/10 06:09:19;;;;;;;;;;;;;;;;;;5067796;28;20007;-82
2023/07/10 06:11:45;;;;;;;;;;;;;;;;;;5055902;28;20361;-82
2023/07/10 06:14:11;;;;;;;;;;;;;;;;;;5055300;28;20276;-81
2023/07/10 06:16:37;;;;;;;;;;;;;;;;;;5052966;28;19924;-71
2023/07/10 06:19:03;;;;;;;;;;;;;;;;;;5068217;28;19926;-72
2023/07/10 06:21:29;;;;;;;;;;;;;;;;;;5072772;28;20137;-73
2023/07/10 06:23:55;;;;;;;;;;;;;;;;;;5073018;28;19921;-73
2023/07/10 06:26:21;;;;;;;;;;;;;;;;;;5072611;28;19970;-72
2023/07/10 06:28:47;;;;;;;;;;;;;;;;;;5070385;28;19999;-72
2023/07/10 06:31:13;;;;;;;;;;;;;;;;;;5072717;28;19927;-75
2023/07/10 06:33:39;;;;;;;;;;;;;;;;;;5072354;28;19920;-72
2023/07/10 06:36:05;;;;;;;;;;;;;;;;;;5072422;28;20266;-79
2023/07/10 06:38:31;;;;;;;;;;;;;;;;;;5055051;28;19924;-79
2023/07/10 06:40:57;;;;;;;;;;;;;;;;;;5072096;28;20379;-79
2023/07/10 06:43:23;;;;;;;;;;;;;;;;;;5071538;28;20323;-72
2023/07/10 06:45:49;;;;;;;;;;;;;;;;;;5072615;28;20022;-79
2023/07/10 06:48:15;;;;;;;;;;;;;;;;;;5054361;28;19925;-79
2023/07/10 06:50:41;;;;;;;;;;;;;;;;;;5071993;28;19967;-69
2023/07/10 06:53:06;;;;;;;;;;;;;;;;;;5071394;28;19966;-69
2023/07/10 06:55:32;;;;;;;;;;;;;;;;;;5066797;28;20007;-69
2023/07/10 06:57:58;;;;;;;;;;;;;;;;;;5063820;28;19920;-70
2023/07/10 07:00:24;;;;;;;;;;;;;;;;;;5067365;28;19946;-71
2023/07/10 07:02:50;;;;;;;;;;;;;;;;;;5081108;28;19978;-72
2023/07/10 07:05:16;;;;;;;;;;;;;;;;;;5072317;28;19920;-72
2023/07/10 07:07:43;;;;;;;;;;;;;;;;;;5090908;28;20300;-73
2023/07/10 07:10:12;;;;;;;;;;;;;;;;;;5086314;28;19924;-76
2023/07/10 07:12:38;;;;;;;;;;;;;;;;;;5080114;28;19964;-78
2023/07/10 07:15:04;;;;;;;;;;;;;;;;;;5070455;28;19971;-71
2023/07/10 07:17:30;;;;;;;;;;;;;;;;;;5091985;28;19985;-72
2023/07/10 07:19:56;;;;;;;;;;;;;;;;;;5086103;28;20695;-71
2023/07/10 07:22:22;;;;;;;;;;;;;;;;;;5082669;28;20347;-71
2023/07/10 07:24:48;;;;;;;;;;;;;;;;;;5086929;28;20034;-71
2023/07/10 07:27:14;;;;;;;;;;;;;;;;;;5082621;28;19924;-71
2023/07/10 07:29:40;;;;;;;;;;;;;;;;;;5090606;28;19932;-74
2023/07/10 07:32:06;;;;;;;;;;;;;;;;;;5091488;28;19968;-83
2023/07/10 07:34:32;;;;;;;;;;;;;;;;;;5073409;28;20158;-83
2023/07/10 07:36:58;;;;;;;;;;;;;;;;;;5085521;28;19967;-75
2023/07/10 07:39:28;;;;;;;;;;;;;;;;;;5078953;28;19923;-75
2023/07/10 07:41:54;;;;;;;;;;;;;;;;;;5091671;28;19923;-73
2023/07/10 07:44:20;;;;;;;;;;;;;;;;;;5083204;28;20394;-73
2023/07/10 07:46:46;;;;;;;;;;;;;;;;;;5081540;28;21275;-74
2023/07/10 07:49:11;;;;;;;;;;;;;;;;;;5090489;28;19963;-73
2023/07/10 07:51:37;;;;;;;;;;;;;;;;;;5076723;28;19924;-78
2023/07/10 07:54:03;;;;;;;;;;;;;;;;;;5089533;28;20322;-72
2023/07/10 07:56:29;;;;;;;;;;;;;;;;;;5089409;28;19923;-73
2023/07/10 07:58:55;;;;;;;;;;;;;;;;;;5082674;28;19955;-73
2023/07/10 08:01:21;;;;;;;;;;;;;;;;;;5075451;28;19931;-69
2023/07/10 08:03:47;;;;;;;;;;;;;;;;;;5070813;28;20380;-69
2023/07/10 08:06:13;;;;;;;;;;;;;;;;;;5082231;28;19977;-70
2023/07/10 08:08:39;;;;;;;;;;;;;;;;;;5088857;28;19928;-68
2023/07/10 08:11:05;;;;;;;;;;;;;;;;;;5090147;28;19931;-71
2023/07/10 08:13:31;;;;;;;;;;;;;;;;;;5085076;28;19936;-70
2023/07/10 08:15:57;;;;;;;;;;;;;;;;;;5056597;28;19925;-75
2023/07/10 08:18:23;;;;;;;;;;;;;;;;;;5080286;28;19946;-73
2023/07/10 08:20:49;;;;;;;;;;;;;;;;;;5090358;28;20424;-73
2023/07/10 08:23:15;;;;;;;;;;;;;;;;;;5072501;28;20364;-82
2023/07/10 08:25:41;;;;;;;;;;;;;;;;;;5083490;28;20015;-78
2023/07/10 08:28:07;;;;;;;;;;;;;;;;;;5073173;28;19969;-76
2023/07/10 08:30:33;;;;;;;;;;;;;;;;;;5076522;28;19978;-72
2023/07/10 08:32:59;;;;;;;;;;;;;;;;;;5072147;28;19977;-73
2023/07/10 08:35:25;;;;;;;;;;;;;;;;;;5090699;28;20011;-77
2023/07/10 08:37:51;;;;;;;;;;;;;;;;;;5072915;28;19935;-74
2023/07/10 08:40:17;;;;;;;;;;;;;;;;;;5089256;28;19977;-73
2023/07/10 08:42:43;;;;;;;;;;;;;;;;;;5082963;28;19928;-73
2023/07/10 08:45:09;;;;;;;;;;;;;;;;;;5080931;28;19924;-74
2023/07/10 08:47:35;;;;;;;;;;;;;;;;;;5090541;28;20412;-73
2023/07/10 08:50:01;;;;;;;;;;;;;;;;;;5087644;28;19928;-73
2023/07/10 08:52:27;;;;;;;;;;;;;;;;;;5089907;28;20391;-73
2023/07/10 08:54:53;;;;;;;;;;;;;;;;;;5090648;28;19931;-72
2023/07/10 08:57:19;;;;;;;;;;;;;;;;;;5090005;28;19924;-69
2023/07/10 08:59:45;;;;;;;;;;;;;;;;;;5089907;28;20013;-73
2023/07/10 09:02:11;;;;;;;;;;;;;;;;;;5090901;28;19928;-72
2023/07/10 09:04:37;;;;;;;;;;;;;;;;;;5079952;28;19971;-72
2023/07/10 09:07:03;;;;;;;;;;;;;;;;;;5090802;28;19931;-79
2023/07/10 09:09:29;;;;;;;;;;;;;;;;;;5085101;28;20350;-73
2023/07/10 09:11:55;;;;;;;;;;;;;;;;;;5082367;28;19938;-72
2023/07/10 09:14:21;;;;;;;;;;;;;;;;;;5084610;28;19928;-69
2023/07/10 09:16:47;;;;;;;;;;;;;;;;;;5070865;28;20327;-74
2023/07/10 09:19:14;;;;;;;;;;;;;;;;;;5087759;28;19924;-71
2023/07/10 09:21:40;;;;;;;;;;;;;;;;;;5090141;28;20247;-73
2023/07/10 09:24:05;;;;;;;;;;;;;;;;;;5091026;28;19967;-84
2023/07/10 09:26:32;;;;;;;;;;;;;;;;;;5089092;28;19920;-68
2023/07/10 09:28:57;;;;;;;;;;;;;;;;;;5090493;28;19920;-82
2023/07/10 09:31:23;;;;;;;;;;;;;;;;;;5089324;28;19920;-87
2023/07/10 09:33:49;;;;;;;;;;;;;;;;;;5061449;28;19921;-85
2023/07/10 09:36:15;;;;;;;;;;;;;;;;;;5071069;28;19920;-78
2023/07/10 09:38:41;;;;;;;;;;;;;;;;;;5072681;28;19932;-80
2023/07/10 09:41:07;;;;;;;;;;;;;;;;;;5073057;28;19967;-84
2023/07/10 09:43:35;;;;;;;;;;;;;;;;;;5056004;28;19943;-85
2023/07/10 09:46:01;;;;;;;;;;;;;;;;;;5073417;28;19929;-86
2023/07/10 09:48:27;;;;;;;;;;;;;;;;;;5055258;28;19924;-86
2023/07/10 09:50:53;;;;;;;;;;;;;;;;;;5072703;28;20049;-84
2023/07/10 09:53:19;;;;;;;;;;;;;;;;;;5073237;28;19924;-87
2023/07/10 09:55:45;;;;;;;;;;;;;;;;;;5072324;28;19931;-86
2023/07/10 09:58:11;;;;;;;;;;;;;;;;;;5070834;28;20019;-85
2023/07/10 10:00:37;;;;;;;;;;;;;;;;;;5072613;28;19932;-75
2023/07/10 10:03:03;;;;;;;;;;;;;;;;;;5064394;28;20381;-74
2023/07/10 10:05:29;;;;;;;;;;;;;;;;;;5072267;28;20514;-72
2023/07/10 10:07:55;;;;;;;;;;;;;;;;;;5072913;28;19920;-73
2023/07/10 10:10:21;;;;;;;;;;;;;;;;;;5073353;28;19975;-73
2023/07/10 10:12:47;;;;;;;;;;;;;;;;;;5073305;28;19977;-73
2023/07/10 10:15:12;;;;;;;;;;;;;;;;;;5073776;28;19943;-73
2023/07/10 10:17:38;;;;;;;;;;;;;;;;;;5071643;28;19928;-73
2023/07/10 10:20:04;;;;;;;;;;;;;;;;;;5072343;28;20315;-73
2023/07/10 10:22:30;;;;;;;;;;;;;;;;;;5071069;28;19935;-73
2023/07/10 10:24:56;;;;;;;;;;;;;;;;;;5072978;28;19920;-74
2023/07/10 10:27:23;;;;;;;;;;;;;;;;;;5072728;28;19920;-72
2023/07/10 10:29:48;;;;;;;;;;;;;;;;;;5065351;28;20030;-73
2023/07/10 10:32:14;;;;;;;;;;;;;;;;;;5070126;28;20667;-71
2023/07/10 10:34:40;;;;;;;;;;;;;;;;;;5057854;28;19954;-73
2023/07/10 10:37:06;;;;;;;;;;;;;;;;;;5052489;28;19970;-73
2023/07/10 10:39:32;;;;;;;;;;;;;;;;;;5051851;28;19920;-74
2023/07/10 10:41:58;;;;;;;;;;;;;;;;;;5052918;28;19921;-73
2023/07/10 10:44:24;;;;;;;;;;;;;;;;;;5061982;28;19966;-74
2023/07/10 10:46:50;;;;;;;;;;;;;;;;;;5052272;28;19967;-73
2023/07/10 10:49:16;;;;;;;;;;;;;;;;;;5051371;28;19921;-73
2023/07/10 10:51:42;;;;;;;;;;;;;;;;;;5051565;28;19928;-73
2023/07/10 10:54:08;;;;;;;;;;;;;;;;;;5052180;28;19967;-72
2023/07/10 10:56:34;;;;;;;;;;;;;;;;;;5061655;28;20361;-73
2023/07/10 10:59:00;;;;;;;;;;;;;;;;;;5072282;28;19921;-75
2023/07/10 11:01:26;;;;;;;;;;;;;;;;;;5067294;28;20051;-74
2023/07/10 11:03:54;;;;;;;;;;;;;;;;;;5082966;28;20433;-74
2023/07/10 11:06:20;;;;;;;;;;;;;;;;;;5074984;28;19967;-75
2023/07/10 11:08:46;;;;;;;;;;;;;;;;;;5070309;28;19951;-75
2023/07/10 11:11:12;;;;;;;;;;;;;;;;;;5075668;28;20399;-74
2023/07/10 11:13:38;;;;;;;;;;;;;;;;;;5071734;28;19964;-75
2023/07/10 11:16:04;;;;;;;;;;;;;;;;;;5077704;28;19934;-76
2023/07/10 11:18:30;;;;;;;;;;;;;;;;;;5090916;28;19920;-75
2023/07/10 11:20:56;;;;;;;;;;;;;;;;;;5090227;28;19968;-78
2023/07/10 11:23:22;;;;;;;;;;;;;;;;;;5091286;28;19999;-73
2023/07/10 11:25:48;;;;;;;;;;;;;;;;;;5091494;28;19919;-74
2023/07/10 11:28:14;;;;;;;;;;;;;;;;;;5073664;28;19930;-73
2023/07/10 11:30:40;;;;;;;;;;;;;;;;;;5084297;28;19967;-73
2023/07/10 11:33:06;;;;;;;;;;;;;;;;;;5081741;28;19974;-74
2023/07/10 11:35:32;;;;;;;;;;;;;;;;;;5082710;28;19926;-74
2023/07/10 11:37:58;;;;;;;;;;;;;;;;;;5086351;28;20391;-73
2023/07/10 11:40:24;;;;;;;;;;;;;;;;;;5067797;28;19920;-75
2023/07/10 11:42:50;;;;;;;;;;;;;;;;;;5090114;28;19920;-73
2023/07/10 11:45:16;;;;;;;;;;;;;;;;;;5090574;28;19920;-72
2023/07/10 11:47:43;;;;;;;;;;;;;;;;;;5089236;28;20011;-73
2023/07/10 11:50:09;;;;;;;;;;;;;;;;;;5090400;28;19954;-73
2023/07/10 11:52:35;;;;;;;;;;;;;;;;;;5077996;28;19924;-75
2023/07/10 11:55:01;;;;;;;;;;;;;;;;;;5084660;28;20002;-74
2023/07/10 11:57:27;;;;;;;;;;;;;;;;;;5084188;28;20613;-80
2023/07/10 11:59:53;;;;;;;;;;;;;;;;;;5070758;28;20535;-77
2023/07/10 12:02:19;;;;;;;;;;;;;;;;;;5062230;28;19920;-77
2023/07/10 12:04:45;;;;;;;;;;;;;;;;;;5091772;28;19973;-78
2023/07/10 12:07:11;;;;;;;;;;;;;;;;;;5076172;28;19930;-77
2023/07/10 12:09:37;;;;;;;;;;;;;;;;;;5081465;28;19920;-79
2023/07/10 12:12:03;;;;;;;;;;;;;;;;;;5091644;28;20017;-78
2023/07/10 12:14:30;;;;;;;;;;;;;;;;;;5092907;28;20383;-80
2023/07/10 12:16:56;;;;;;;;;;;;;;;;;;5073699;28;19922;-80
2023/07/10 12:19:22;;;;;;;;;;;;;;;;;;5089736;28;19919;-78
2023/07/10 12:21:48;;;;;;;;;;;;;;;;;;5071681;28;19962;-84
2023/07/10 12:24:14;;;;;;;;;;;;;;;;;;5067283;28;19924;-85
2023/07/10 12:26:40;;;;;;;;;;;;;;;;;;5053605;28;19932;-85
2023/07/10 12:29:06;;;;;;;;;;;;;;;;;;5084028;28;19927;-84
2023/07/10 12:31:32;;;;;;;;;;;;;;;;;;5080734;28;19920;-84
2023/07/10 12:33:57;;;;;;;;;;;;;;;;;;5090040;28;19920;-84
2023/07/10 12:36:23;;;;;;;;;;;;;;;;;;5064419;28;20594;-84
2023/07/10 12:38:49;;;;;;;;;;;;;;;;;;5086512;28;19981;-84
2023/07/10 12:41:15;;;;;;;;;;;;;;;;;;5080775;28;19927;-84
2023/07/10 12:43:41;;;;;;;;;;;;;;;;;;5067101;28;19936;-85
2023/07/10 12:46:07;;;;;;;;;;;;;;;;;;5054078;28;19924;-84
2023/07/10 12:48:33;;;;;;;;;;;;;;;;;;5057462;28;20369;-85
2023/07/10 12:50:59;;;;;;;;;;;;;;;;;;5049931;28;19920;-84
2023/07/10 12:53:25;;;;;;;;;;;;;;;;;;5050720;28;19925;-84
2023/07/10 12:55:51;;;;;;;;;;;;;;;;;;5050571;28;19924;-85
2023/07/10 12:58:17;;;;;;;;;;;;;;;;;;5053881;28;20285;-84
2023/07/10 13:00:44;;;;;;;;;;;;;;;;;;5070716;28;20007;-84
2023/07/10 13:03:10;;;;;;;;;;;;;;;;;;5053815;28;19924;-85
2023/07/10 13:05:37;;;;;;;;;;;;;;;;;;5054321;28;20276;-84
2023/07/10 13:08:03;;;;;;;;;;;;;;;;;;5070844;28;19924;-84
2023/07/10 13:10:29;;;;;;;;;;;;;;;;;;5057817;28;19924;-84
2023/07/10 13:12:55;;;;;;;;;;;;;;;;;;5071379;28;20026;-84
2023/07/10 13:15:21;;;;;;;;;;;;;;;;;;5074586;28;19924;-85
2023/07/10 13:17:47;;;;;;;;;;;;;;;;;;5054284;28;20602;-84
2023/07/10 13:20:13;;;;;;;;;;;;;;;;;;5055984;28;19924;-78
2023/07/10 13:22:39;;;;;;;;;;;;;;;;;;5070081;28;19970;-77
2023/07/10 13:25:06;;;;;;;;;;;;;;;;;;5091055;28;19920;-78
2023/07/10 13:27:32;;;;;;;;;;;;;;;;;;5078216;28;19924;-78
2023/07/10 13:29:58;;;;;;;;;;;;;;;;;;5056910;28;19924;-78
2023/07/10 13:32:24;;;;;;;;;;;;;;;;;;5092907;28;20284;-78
2023/07/10 13:34:49;;;;;;;;;;;;;;;;;;5075321;28;19931;-79
2023/07/10 13:37:15;;;;;;;;;;;;;;;;;;5093660;28;19928;-78
2023/07/10 13:39:41;;;;;;;;;;;;;;;;;;5085698;28;19935;-82
2023/07/10 13:42:07;;;;;;;;;;;;;;;;;;5088906;28;19925;-78
2023/07/10 13:44:33;;;;;;;;;;;;;;;;;;5074132;28;19931;-78
2023/07/10 13:46:59;;;;;;;;;;;;;;;;;;5075646;28;20022;-79
2023/07/10 13:49:25;;;;;;;;;;;;;;;;;;5070863;28;19923;-78
2023/07/10 13:51:51;;;;;;;;;;;;;;;;;;5075683;28;19982;-80
2023/07/10 13:54:17;;;;;;;;;;;;;;;;;;5093117;28;19931;-78
2023/07/10 13:56:45;;;;;;;;;;;;;;;;;;5092030;28;20006;-81
2023/07/10 13:59:11;;;;;;;;;;;;;;;;;;5091582;28;19924;-78
2023/07/10 14:01:37;;;;;;;;;;;;;;;;;;5055863;28;19966;-78
2023/07/10 14:04:03;;;;;;;;;;;;;;;;;;5071256;28;19928;-78
2023/07/10 14:06:29;;;;;;;;;;;;;;;;;;5075997;28;20357;-79
2023/07/10 14:08:55;;;;;;;;;;;;;;;;;;5075188;28;19924;-78
2023/07/10 14:11:21;;;;;;;;;;;;;;;;;;5074639;28;19927;-78
2023/07/10 14:13:47;;;;;;;;;;;;;;;;;;5075147;28;20003;-78
2023/07/10 14:16:13;;;;;;;;;;;;;;;;;;5075665;28;19920;-78
2023/07/10 14:18:39;;;;;;;;;;;;;;;;;;5091759;28;19920;-78
2023/07/10 14:21:05;;;;;;;;;;;;;;;;;;5090584;28;19960;-79
2023/07/10 14:23:31;;;;;;;;;;;;;;;;;;5066357;28;19977;-78
2023/07/10 14:25:57;;;;;;;;;;;;;;;;;;5088994;28;20376;-79
2023/07/10 14:28:23;;;;;;;;;;;;;;;;;;5066892;28;19969;-77
2023/07/10 14:30:49;;;;;;;;;;;;;;;;;;5074966;28;19920;-77
2023/07/10 14:33:15;;;;;;;;;;;;;;;;;;5085335;28;19928;-78
2023/07/10 14:35:41;;;;;;;;;;;;;;;;;;5075547;28;20411;-78
2023/07/10 14:38:06;;;;;;;;;;;;;;;;;;5091887;28;19947;-77
2023/07/10 14:40:32;;;;;;;;;;;;;;;;;;5073557;28;19950;-78
2023/07/10 14:42:58;;;;;;;;;;;;;;;;;;5082730;28;19978;-78
2023/07/10 14:45:24;;;;;;;;;;;;;;;;;;5071262;28;19920;-78
2023/07/10 14:47:50;;;;;;;;;;;;;;;;;;5063852;28;20042;-78
2023/07/10 14:50:16;;;;;;;;;;;;;;;;;;5080356;28;19938;-79
2023/07/10 14:52:42;;;;;;;;;;;;;;;;;;5074873;28;19924;-74
2023/07/10 14:55:08;;;;;;;;;;;;;;;;;;5090579;28;19920;-74
2023/07/10 14:57:34;;;;;;;;;;;;;;;;;;5092223;28;19927;-77
2023/07/10 15:00:00;;;;;;;;;;;;;;;;;;5091315;28;19999;-73
2023/07/10 15:02:26;;;;;;;;;;;;;;;;;;5074801;28;19927;-75
2023/07/10 15:04:52;;;;;;;;;;;;;;;;;;5076592;28;19920;-74
2023/07/10 15:07:18;;;;;;;;;;;;;;;;;;5071240;28;20315;-74
2023/07/10 15:09:44;;;;;;;;;;;;;;;;;;5071070;28;19943;-75
2023/07/10 15:12:10;;;;;;;;;;;;;;;;;;5083815;28;19928;-73
2023/07/10 15:14:36;;;;;;;;;;;;;;;;;;5080872;28;19920;-79
2023/07/10 15:17:02;;;;;;;;;;;;;;;;;;5090376;28;19926;-77
2023/07/10 15:19:28;;;;;;;;;;;;;;;;;;5090250;28;20364;-78
2023/07/10 15:21:54;;;;;;;;;;;;;;;;;;5073728;28;19923;-79
2023/07/10 15:24:21;;;;;;;;;;;;;;;;;;5063643;28;19924;-78
2023/07/10 15:26:47;;;;;;;;;;;;;;;;;;5083324;28;20387;-78
2023/07/10 15:29:13;;;;;;;;;;;;;;;;;;5062232;28;19920;-77
2023/07/10 15:31:39;;;;;;;;;;;;;;;;;;5070748;28;19967;-78
2023/07/10 15:34:04;;;;;;;;;;;;;;;;;;5084314;28;20356;-77
2023/07/10 15:36:30;;;;;;;;;;;;;;;;;;5090142;28;20116;-77
2023/07/10 15:38:56;;;;;;;;;;;;;;;;;;5073614;28;19920;-78
2023/07/10 15:41:22;;;;;;;;;;;;;;;;;;5089989;28;19928;-78
2023/07/10 15:43:48;;;;;;;;;;;;;;;;;;5072246;28;20339;-79
2023/07/10 15:46:14;;;;;;;;;;;;;;;;;;5057793;28;20438;-81
2023/07/10 15:48:40;;;;;;;;;;;;;;;;;;5054706;28;19920;-78
2023/07/10 15:51:06;;;;;;;;;;;;;;;;;;5087144;28;19920;-77
2023/07/10 15:53:32;;;;;;;;;;;;;;;;;;5076731;28;19972;-82
2023/07/10 15:55:58;;;;;;;;;;;;;;;;;;5091457;28;20389;-82
2023/07/10 15:58:24;;;;;;;;;;;;;;;;;;5081412;28;19920;-81
2023/07/10 16:00:50;;;;;;;;;;;;;;;;;;5090542;28;19932;-85
2023/07/10 16:03:16;;;;;;;;;;;;;;;;;;5088776;28;19931;-83
2023/07/10 16:05:42;;;;;;;;;;;;;;;;;;5078141;28;19920;-83
2023/07/10 16:08:08;;;;;;;;;;;;;;;;;;5078433;28;19943;-83
2023/07/10 16:10:34;;;;;;;;;;;;;;;;;;5069719;28;19935;-84
2023/07/10 16:13:00;;;;;;;;;;;;;;;;;;5070687;28;19920;-82
2023/07/10 16:15:26;;;;;;;;;;;;;;;;;;5090808;28;19920;-79
2023/07/10 16:17:52;;;;;;;;;;;;;;;;;;5082889;28;19999;-80
2023/07/10 16:20:18;;;;;;;;;;;;;;;;;;5088697;28;20002;-80
2023/07/10 16:22:44;;;;;;;;;;;;;;;;;;5089481;28;19927;-80
2023/07/10 16:25:10;;;;;;;;;;;;;;;;;;5088175;28;20459;-80
2023/07/10 16:27:36;;;;;;;;;;;;;;;;;;5072763;28;19920;-80
2023/07/10 16:30:02;;;;;;;;;;;;;;;;;;5063573;28;19935;-80
2023/07/10 16:32:27;;;;;;;;;;;;;;;;;;5064436;28;19975;-80
2023/07/10 16:34:54;;;;;;;;;;;;;;;;;;5062894;28;19970;-79
2023/07/10 16:37:20;;;;;;;;;;;;;;;;;;5057970;28;19924;-80